Time;durP1;ratioP1;P1;durP2;ratioP2;P2;SDS_P1;SDS_P2;PMS_P1;PMS_P2;Temp;Humidity;BMP_temperature;BMP_pressure;BME280_temperature;BME280_humidity;BME280_pressure;Samples;Min_cycle;Max_cycle;Signal;HPM_P1;HPM_P2
2023/01/27 00:01:48;;;;;;;;;;;;;;;4.56;92.53;102441.94;5072484;28;19923;-59
2023/01/27 00:04:13;;;;;;;;;;;;;;;4.54;92.61;102445.63;5079332;28;19928;-58
2023/01/27 00:06:38;;;;;;;;;;;;;;;4.52;92.86;102437.81;5075010;28;19974;-59
2023/01/27 00:09:03;;;;;;;;;;;;;;;4.51;92.51;102432.66;5064548;28;19920;-58
2023/01/27 00:14:12;;;;;;;;;;;;;;;4.46;92.73;102438.19;5063438;28;20381;-59
2023/01/27 00:16:37;;;;;;;;;;;;;;;4.42;92.42;102436.69;5071727;28;19916;-58
2023/01/27 00:19:03;;;;;;;;;;;;;;;4.39;92.32;102442.13;5067230;28;19931;-59
2023/01/27 00:26:56;;;;;;;;;;;;;;;4.33;92.26;102442.47;5061024;28;19931;-58
2023/01/27 00:29:21;;;;;;;;;;;;;;;4.31;92.32;102447.81;5072287;28;19916;-58
2023/01/27 00:34:30;;;;;;;;;;;;;;;4.29;92.53;102448.84;5058909;28;19924;-58
2023/01/27 00:36:55;;;;;;;;;;;;;;;4.26;92.22;102441.16;5069701;28;19924;-58
2023/01/27 00:39:20;;;;;;;;;;;;;;;4.24;92.24;102449.13;5073458;28;19958;-58
2023/01/27 00:41:46;;;;;;;;;;;;;;;4.22;92.25;102452.78;5068359;28;19921;-59
2023/01/27 00:44:14;;;;;;;;;;;;;;;4.21;92.47;102446.69;5069226;28;19940;-58
2023/01/27 00:46:40;;;;;;;;;;;;;;;4.21;92.31;102451.09;5067719;28;19965;-58
2023/01/27 00:49:05;;;;;;;;;;;;;;;4.21;92.37;102451.94;5077182;28;20392;-59
2023/01/27 00:51:30;;;;;;;;;;;;;;;4.19;92.61;102451.19;5051350;28;19916;-57
2023/01/27 00:53:55;;;;;;;;;;;;;;;4.19;92.53;102456.44;5063802;28;20293;-58
2023/01/27 00:56:20;;;;;;;;;;;;;;;4.18;92.36;102456.53;5068986;28;20524;-59
2023/01/27 00:58:46;;;;;;;;;;;;;;;4.16;92.30;102458.41;5069115;28;19920;-58
2023/01/27 01:01:12;;;;;;;;;;;;;;;4.15;92.46;102448.81;5063757;28;19920;-59
2023/01/27 01:03:38;;;;;;;;;;;;;;;4.14;92.15;102455.03;5062470;28;19916;-58
2023/01/27 01:06:04;;;;;;;;;;;;;;;4.11;92.31;102447.31;5068590;28;19924;-58
2023/01/27 01:08:31;;;;;;;;;;;;;;;4.11;92.38;102457.84;5074778;28;19948;-57
2023/01/27 01:10:56;;;;;;;;;;;;;;;4.11;92.32;102452.56;5072281;28;19931;-58
2023/01/27 01:13:21;;;;;;;;;;;;;;;4.10;92.43;102456.16;5067202;28;19916;-58
2023/01/27 01:15:47;;;;;;;;;;;;;;;4.10;92.24;102461.41;5061231;28;19924;-58
2023/01/27 01:18:12;;;;;;;;;;;;;;;4.07;92.35;102457.16;5063413;28;19921;-58
2023/01/27 01:20:38;;;;;;;;;;;;;;;4.08;92.47;102463.28;5074953;28;19955;-58
2023/01/27 01:23:04;;;;;;;;;;;;;;;4.05;92.55;102464.31;5075349;28;19920;-58
2023/01/27 01:25:30;;;;;;;;;;;;;;;4.05;92.28;102461.69;5071750;28;20004;-58
2023/01/27 01:27:55;;;;;;;;;;;;;;;4.04;92.31;102467.84;5069848;28;20014;-58
2023/01/27 01:30:20;;;;;;;;;;;;;;;4.04;92.34;102467.84;5074093;28;19912;-58
2023/01/27 01:32:45;;;;;;;;;;;;;;;4.03;92.13;102474.88;5068777;28;19920;-59
2023/01/27 01:35:11;;;;;;;;;;;;;;;4.02;92.08;102467.91;5070761;28;20051;-58
2023/01/27 01:37:36;;;;;;;;;;;;;;;4.01;92.09;102471.50;5071734;28;19966;-59
2023/01/27 01:40:01;;;;;;;;;;;;;;;4.01;92.27;102471.50;5069479;28;19944;-58
2023/01/27 01:42:44;;;;;;;;;;;;;;;4.02;92.45;102474.97;5071023;28;19923;-57
2023/01/27 01:45:28;;;;;;;;;;;;;;;4.01;92.32;102471.50;5062732;28;19916;-59
2023/01/27 01:47:53;;;;;;;;;;;;;;;3.99;92.51;102469.88;5069171;28;19956;-58
2023/01/27 01:50:18;;;;;;;;;;;;;;;3.99;92.54;102472.50;5070244;28;20013;-57
2023/01/27 01:52:43;;;;;;;;;;;;;;;3.98;92.33;102476.06;5071099;28;19916;-58
2023/01/27 01:55:09;;;;;;;;;;;;;;;3.96;92.37;102476.16;5068620;28;20007;-56
2023/01/27 01:57:36;;;;;;;;;;;;;;;3.96;92.53;102477.94;5075941;28;19920;-58
2023/01/27 02:00:05;;;;;;;;;;;;;;;3.94;92.49;102469.31;5059834;28;19923;-59
2023/01/27 02:02:31;;;;;;;;;;;;;;;3.94;92.48;102472.78;5065654;28;19966;-58
2023/01/27 02:05:01;;;;;;;;;;;;;;;3.93;92.35;102471.09;5087509;28;20294;-59
2023/01/27 02:07:38;;;;;;;;;;;;;;;3.93;92.54;102480.75;5072646;28;19923;-58
2023/01/27 02:10:03;;;;;;;;;;;;;;;3.92;92.54;102477.28;5067803;28;20559;-59
2023/01/27 02:12:28;;;;;;;;;;;;;;;3.92;92.56;102476.44;5071145;28;20003;-59
2023/01/27 02:14:54;;;;;;;;;;;;;;;3.92;92.54;102479.91;5073813;28;20353;-58
2023/01/27 02:17:19;;;;;;;;;;;;;;;3.92;92.54;102479.91;5065071;28;20007;-58
2023/01/27 02:20:03;;;;;;;;;;;;;;;3.91;92.74;102475.59;5070311;28;19917;-58
2023/01/27 02:22:37;;;;;;;;;;;;;;;3.92;92.54;102474.66;5059259;28;19916;-57
2023/01/27 02:25:09;;;;;;;;;;;;;;;3.91;92.59;102486.09;5070334;28;19939;-59
2023/01/27 02:27:35;;;;;;;;;;;;;;;3.91;92.71;102491.34;5058736;28;19927;-59
2023/01/27 02:30:00;;;;;;;;;;;;;;;3.90;92.76;102497.53;5071732;28;19995;-58
2023/01/27 02:32:26;;;;;;;;;;;;;;;3.88;92.71;102494.16;5067640;28;20391;-58
2023/01/27 02:34:52;;;;;;;;;;;;;;;3.86;92.38;102490.78;5063455;28;20011;-57
2023/01/27 02:37:18;;;;;;;;;;;;;;;3.83;92.52;102485.69;5062922;28;19943;-57
2023/01/27 02:39:45;;;;;;;;;;;;;;;3.80;92.34;102493.75;5065283;28;19923;-58
2023/01/27 02:42:11;;;;;;;;;;;;;;;3.76;92.22;102486.97;5066958;28;19916;-57
2023/01/27 02:44:37;;;;;;;;;;;;;;;3.73;92.31;102501.09;5069407;28;19950;-59
2023/01/27 02:47:02;;;;;;;;;;;;;;;3.68;92.49;102495.28;5079633;28;20371;-58
2023/01/27 02:49:27;;;;;;;;;;;;;;;3.65;92.37;102500.69;5077253;28;19912;-58
2023/01/27 02:51:52;;;;;;;;;;;;;;;3.63;92.73;102499.09;5057683;28;19920;-58
2023/01/27 02:54:17;;;;;;;;;;;;;;;3.60;92.83;102494.00;5075295;28;19921;-59
2023/01/27 02:56:43;;;;;;;;;;;;;;;3.58;92.48;102495.88;5067435;28;19924;-58
2023/01/27 02:59:08;;;;;;;;;;;;;;;3.57;92.83;102495.03;5068309;28;20015;-58
2023/01/27 03:01:33;;;;;;;;;;;;;;;3.56;92.69;102498.59;5069639;28;19921;-56
2023/01/27 03:03:58;;;;;;;;;;;;;;;3.56;92.84;102500.38;5076670;28;19963;-58
2023/01/27 03:06:24;;;;;;;;;;;;;;;3.56;92.93;102497.75;5066488;28;19928;-59
2023/01/27 03:08:49;;;;;;;;;;;;;;;3.56;92.94;102503.84;5065488;28;20014;-59
2023/01/27 03:12:18;;;;;;;;;;;;;;;3.56;92.83;102505.63;5068388;28;19958;-58
2023/01/27 03:13:59;;;;;;;;;;;;;;;3.56;93.01;102505.63;5065982;28;20427;-59
2023/01/27 03:19:08;;;;;;;;;;;;;;;3.56;93.11;102509.09;5067283;28;20002;-58
2023/01/27 03:21:33;;;;;;;;;;;;;;;3.57;93.02;102512.56;5063154;28;20411;-58
2023/01/27 03:23:59;;;;;;;;;;;;;;;3.57;93.04;102509.94;5065038;28;19943;-58
2023/01/27 03:26:24;;;;;;;;;;;;;;;3.58;93.11;102515.09;5062601;28;20364;-57
2023/01/27 03:29:53;;;;;;;;;;;;;;;3.58;93.28;102516.88;5070478;28;19917;-59
2023/01/27 03:31:34;;;;;;;;;;;;;;;3.60;93.28;102515.03;5063774;28;19912;-58
2023/01/27 03:33:59;;;;;;;;;;;;;;;3.59;93.22;102519.44;5060578;28;19931;-58
2023/01/27 03:47:21;;;;;;;;;;;;;;;3.59;93.61;102523.84;5066386;28;19985;-58
2023/01/27 03:49:46;;;;;;;;;;;;;;;3.59;93.91;102529.94;5069784;28;19976;-58
2023/01/27 03:52:11;;;;;;;;;;;;;;;3.58;93.87;102528.25;5069230;28;19923;-58
2023/01/27 03:54:36;;;;;;;;;;;;;;;3.59;93.96;102527.31;5062197;28;19971;-58
2023/01/27 03:57:04;;;;;;;;;;;;;;;3.59;93.99;102526.47;5068199;28;20359;-59
2023/01/27 03:59:29;;;;;;;;;;;;;;;3.59;93.78;102531.72;5059416;28;19960;-59
2023/01/27 04:07:22;;;;;;;;;;;;;;;3.58;94.29;102532.66;5062359;28;19927;-58
2023/01/27 04:09:47;;;;;;;;;;;;;;;3.58;94.34;102535.28;5072771;28;19913;-59
2023/01/27 04:12:13;;;;;;;;;;;;;;;3.56;94.49;102532.72;5066050;28;19971;-57
2023/01/27 04:14:42;;;;;;;;;;;;;;;3.57;94.51;102538.84;5065994;28;19920;-58
2023/01/27 04:17:14;;;;;;;;;;;;;;;3.55;94.64;102530.19;5068409;28;20411;-58
2023/01/27 04:19:40;;;;;;;;;;;;;;;3.53;94.92;102525.03;5083384;28;20011;-58
2023/01/27 04:22:05;;;;;;;;;;;;;;;3.52;95.01;102530.38;5077316;28;20003;-58
2023/01/27 04:24:31;;;;;;;;;;;;;;;3.51;95.04;102536.53;5063345;28;20011;-58
2023/01/27 04:26:58;;;;;;;;;;;;;;;3.51;94.94;102539.19;5066624;28;19920;-58
2023/01/27 04:29:24;;;;;;;;;;;;;;;3.50;95.03;102538.31;5070344;28;19920;-58
2023/01/27 04:31:49;;;;;;;;;;;;;;;3.51;95.30;102536.53;5069372;28;19951;-58
2023/01/27 04:34:15;;;;;;;;;;;;;;;3.49;95.11;102534.00;5069993;28;20387;-58
2023/01/27 04:36:40;;;;;;;;;;;;;;;3.50;95.25;102543.59;5065553;28;20381;-59
2023/01/27 04:39:06;;;;;;;;;;;;;;;3.50;95.55;102545.34;5072180;28;20280;-58
2023/01/27 04:41:31;;;;;;;;;;;;;;;3.47;95.59;102546.38;5061222;28;19916;-58
2023/01/27 04:43:56;;;;;;;;;;;;;;;3.48;95.56;102547.22;5067417;28;20375;-59
2023/01/27 04:46:21;;;;;;;;;;;;;;;3.46;95.61;102549.91;5071142;28;19917;-58
2023/01/27 04:48:46;;;;;;;;;;;;;;;3.46;95.60;102543.81;5077921;28;19920;-58
2023/01/27 04:51:12;;;;;;;;;;;;;;;3.43;95.84;102550.06;5077753;28;20400;-58
2023/01/27 04:53:37;;;;;;;;;;;;;;;3.43;95.59;102563.19;5079213;28;19916;-58
2023/01/27 04:56:06;;;;;;;;;;;;;;;3.41;95.29;102555.41;5074375;28;19916;-58
2023/01/27 04:58:31;;;;;;;;;;;;;;;3.39;95.04;102553.78;5079339;28;19912;-58
2023/01/27 05:00:56;;;;;;;;;;;;;;;3.39;94.77;102557.28;5077459;28;19923;-58
2023/01/27 05:03:22;;;;;;;;;;;;;;;3.39;94.98;102553.78;5077827;28;19925;-58
2023/01/27 05:05:47;;;;;;;;;;;;;;;3.39;94.69;102562.53;5082556;28;19947;-58
2023/01/27 05:08:12;;;;;;;;;;;;;;;3.41;94.58;102554.56;5072706;28;20015;-59
2023/01/27 05:10:37;;;;;;;;;;;;;;;3.42;94.56;102561.50;5076371;28;20007;-58
2023/01/27 05:13:02;;;;;;;;;;;;;;;3.41;94.52;102559.81;5068797;28;19912;-58
2023/01/27 05:15:28;;;;;;;;;;;;;;;3.41;94.70;102555.41;5071461;28;19993;-58
2023/01/27 05:17:53;;;;;;;;;;;;;;;3.42;94.47;102557.09;5076101;28;20011;-58
2023/01/27 05:20:19;;;;;;;;;;;;;;;3.42;94.54;102557.09;5069758;28;19978;-58
2023/01/27 05:22:44;;;;;;;;;;;;;;;3.44;94.34;102567.53;5072908;28;20407;-57
2023/01/27 05:25:09;;;;;;;;;;;;;;;3.46;94.05;102575.31;5077782;28;20457;-59
2023/01/27 05:27:34;;;;;;;;;;;;;;;3.47;93.97;102571.75;5068671;28;19971;-58
2023/01/27 05:30:00;;;;;;;;;;;;;;;3.47;93.78;102566.50;5070381;28;20341;-59
2023/01/27 05:32:25;;;;;;;;;;;;;;;3.47;93.74;102575.25;5068645;28;19955;-59
2023/01/27 05:34:50;;;;;;;;;;;;;;;3.50;93.89;102574.25;5078078;28;21475;-58
2023/01/27 05:37:15;;;;;;;;;;;;;;;3.50;93.79;102577.72;5080669;28;19955;-59
2023/01/27 05:39:41;;;;;;;;;;;;;;;3.53;93.60;102572.31;5076243;28;20364;-58
2023/01/27 05:42:06;;;;;;;;;;;;;;;3.52;93.28;102580.28;5068419;28;19920;-57
2023/01/27 05:44:31;;;;;;;;;;;;;;;3.51;93.19;102579.41;5059572;28;21844;-58
2023/01/27 05:46:56;;;;;;;;;;;;;;;3.54;93.17;102588.91;5073398;28;19920;-57
2023/01/27 05:49:21;;;;;;;;;;;;;;;3.53;92.85;102587.22;5073365;28;19928;-58
2023/01/27 05:51:47;;;;;;;;;;;;;;;3.54;92.77;102584.50;5070815;28;19919;-59
2023/01/27 05:54:12;;;;;;;;;;;;;;;3.55;92.89;102582.72;5068608;28;20945;-58
2023/01/27 05:56:38;;;;;;;;;;;;;;;3.57;92.66;102594.84;5075800;28;19958;-59
2023/01/27 05:59:03;;;;;;;;;;;;;;;3.58;92.76;102587.81;5062916;28;19940;-58
2023/01/27 06:01:29;;;;;;;;;;;;;;;3.59;92.54;102602.63;5067274;28;20391;-59
2023/01/27 06:03:55;;;;;;;;;;;;;;;3.59;92.59;102589.50;5061991;28;19917;-59
2023/01/27 06:06:21;;;;;;;;;;;;;;;3.59;92.27;102594.75;5068334;28;20285;-59
2023/01/27 06:08:47;;;;;;;;;;;;;;;3.58;92.65;102591.28;5062589;28;19916;-59
2023/01/27 06:11:12;;;;;;;;;;;;;;;3.61;92.43;102592.91;5063231;28;20397;-58
2023/01/27 06:13:38;;;;;;;;;;;;;;;3.60;92.80;102597.31;5071793;28;19917;-58
2023/01/27 06:16:04;;;;;;;;;;;;;;;3.61;92.43;102601.63;5060871;28;20482;-59
2023/01/27 06:18:29;;;;;;;;;;;;;;;3.61;92.40;102601.63;5064655;28;19921;-59
2023/01/27 06:20:58;;;;;;;;;;;;;;;3.61;92.58;102606.88;5064468;28;19913;-58
2023/01/27 06:23:23;;;;;;;;;;;;;;;3.61;92.37;102606.88;5066602;28;19916;-59
2023/01/27 06:25:49;;;;;;;;;;;;;;;3.62;92.36;102607.72;5077075;28;19920;-58
2023/01/27 06:28:15;;;;;;;;;;;;;;;3.62;92.32;102610.34;5074547;28;19917;-57
2023/01/27 06:30:41;;;;;;;;;;;;;;;3.62;92.51;102613.81;5066674;28;19916;-58
2023/01/27 06:33:06;;;;;;;;;;;;;;;3.62;92.38;102608.56;5074080;28;20362;-58
2023/01/27 06:35:32;;;;;;;;;;;;;;;3.62;92.33;102608.56;5068247;28;19926;-59
2023/01/27 06:37:58;;;;;;;;;;;;;;;3.62;92.24;102613.81;5068507;28;19916;-57
2023/01/27 06:40:24;;;;;;;;;;;;;;;3.62;92.30;102613.81;5079252;28;19917;-59
2023/01/27 06:42:49;;;;;;;;;;;;;;;3.63;92.33;102612.03;5066325;28;19920;-59
2023/01/27 06:45:14;;;;;;;;;;;;;;;3.63;92.18;102614.69;5061969;28;20015;-58
2023/01/27 06:47:40;;;;;;;;;;;;;;;3.65;92.19;102618.06;5067692;28;19920;-58
2023/01/27 06:50:06;;;;;;;;;;;;;;;3.65;92.24;102621.53;5083465;28;19916;-59
2023/01/27 06:52:31;;;;;;;;;;;;;;;3.66;92.27;102622.38;5068288;28;19925;-59
2023/01/27 06:54:56;;;;;;;;;;;;;;;3.66;92.20;102623.25;5052249;28;19931;-58
2023/01/27 06:57:22;;;;;;;;;;;;;;;3.66;92.15;102617.13;5074527;28;19916;-58
2023/01/27 06:59:47;;;;;;;;;;;;;;;3.66;91.99;102625.88;5076499;28;19967;-59
2023/01/27 07:02:12;;;;;;;;;;;;;;;3.68;92.08;102626.63;5070346;28;19934;-58
2023/01/27 07:04:38;;;;;;;;;;;;;;;3.70;91.88;102626.53;5069794;28;20283;-58
2023/01/27 07:07:03;;;;;;;;;;;;;;;3.71;92.06;102626.47;5067004;28;19952;-58
2023/01/27 07:09:28;;;;;;;;;;;;;;;3.73;92.03;102629.00;5064643;28;19916;-59
2023/01/27 07:11:53;;;;;;;;;;;;;;;3.74;91.89;102631.53;5064813;28;20008;-58
2023/01/27 07:14:19;;;;;;;;;;;;;;;3.76;92.06;102628.00;5071903;28;19909;-58
2023/01/27 07:16:44;;;;;;;;;;;;;;;3.77;92.02;102627.94;5073398;28;19931;-58
2023/01/27 07:19:11;;;;;;;;;;;;;;;3.77;91.79;102627.94;5072078;28;19962;-59
2023/01/27 07:21:36;;;;;;;;;;;;;;;3.78;91.70;102628.78;5061315;28;19917;-59
2023/01/27 07:24:02;;;;;;;;;;;;;;;3.79;91.69;102628.69;5071248;28;20367;-58
2023/01/27 07:26:27;;;;;;;;;;;;;;;3.79;91.45;102628.69;5074763;28;19921;-58
2023/01/27 07:28:54;;;;;;;;;;;;;;;3.79;91.52;102631.31;5066054;28;19916;-58
2023/01/27 07:31:19;;;;;;;;;;;;;;;3.80;91.43;102626.91;5067167;28;19922;-58
2023/01/27 07:33:44;;;;;;;;;;;;;;;3.81;91.44;102631.25;5061019;28;20341;-57
2023/01/27 07:36:10;;;;;;;;;;;;;;;3.81;91.42;102634.72;5065677;28;20625;-58
2023/01/27 07:38:35;;;;;;;;;;;;;;;3.83;91.32;102635.47;5055878;28;19916;-57
2023/01/27 07:41:02;;;;;;;;;;;;;;;3.83;91.58;102643.38;5063252;28;20379;-58
2023/01/27 07:43:27;;;;;;;;;;;;;;;3.83;91.45;102648.63;5065541;28;19924;-58
2023/01/27 07:45:53;;;;;;;;;;;;;;;3.84;91.23;102647.69;5062737;28;19925;-59
2023/01/27 07:48:18;;;;;;;;;;;;;;;3.84;91.13;102649.47;5072113;28;20341;-58
2023/01/27 07:50:43;;;;;;;;;;;;;;;3.85;91.37;102645.91;5069211;28;19927;-58
2023/01/27 07:53:09;;;;;;;;;;;;;;;3.82;91.12;102640.81;5075086;28;20002;-59
2023/01/27 07:55:34;;;;;;;;;;;;;;;3.85;91.07;102646.75;5077272;28;19920;-58
2023/01/27 07:57:59;;;;;;;;;;;;;;;3.85;91.04;102662.53;5075860;28;19913;-58
2023/01/27 08:00:25;;;;;;;;;;;;;;;3.85;91.13;102657.28;5065447;28;19920;-58
2023/01/27 08:02:51;;;;;;;;;;;;;;;3.85;91.14;102649.38;5071401;28;19923;-57
2023/01/27 08:05:16;;;;;;;;;;;;;;;3.85;91.07;102649.38;5068146;28;19912;-58
2023/01/27 08:07:41;;;;;;;;;;;;;;;3.85;90.90;102652.00;5061540;28;20058;-56
2023/01/27 08:10:06;;;;;;;;;;;;;;;3.86;91.08;102647.59;5067398;28;20018;-57
2023/01/27 08:12:31;;;;;;;;;;;;;;;3.87;91.08;102654.56;5074839;28;19913;-58
2023/01/27 08:14:57;;;;;;;;;;;;;;;3.87;91.05;102659.81;5063766;28;19916;-58
2023/01/27 08:17:22;;;;;;;;;;;;;;;3.87;90.93;102654.56;5071656;28;19912;-58
2023/01/27 08:19:49;;;;;;;;;;;;;;;3.85;90.74;102662.53;5058837;28;19919;-58
2023/01/27 08:22:18;;;;;;;;;;;;;;;3.86;90.86;102669.47;5061998;28;19947;-59
2023/01/27 08:24:43;;;;;;;;;;;;;;;3.85;90.87;102662.53;5064447;28;19912;-59
2023/01/27 08:27:08;;;;;;;;;;;;;;;3.84;90.91;102668.72;5068862;28;20583;-59
2023/01/27 08:29:34;;;;;;;;;;;;;;;3.83;90.60;102668.81;5067529;28;19921;-57
2023/01/27 08:31:59;;;;;;;;;;;;;;;3.82;90.67;102670.56;5066225;28;20356;-58
2023/01/27 08:34:24;;;;;;;;;;;;;;;3.83;90.45;102672.28;5061631;28;20015;-58
2023/01/27 08:36:49;;;;;;;;;;;;;;;3.83;90.68;102681.94;5068812;28;19966;-58
2023/01/27 08:39:15;;;;;;;;;;;;;;;3.82;90.36;102681.09;5072873;28;19993;-57
2023/01/27 08:41:40;;;;;;;;;;;;;;;3.82;90.57;102686.34;5064289;28;19963;-58
2023/01/27 08:44:05;;;;;;;;;;;;;;;3.83;90.63;102676.69;5072587;28;19916;-57
2023/01/27 08:46:31;;;;;;;;;;;;;;;3.82;90.15;102688.13;5071953;28;19969;-58
2023/01/27 08:48:56;;;;;;;;;;;;;;;3.83;90.25;102687.19;5063796;28;19981;-58
2023/01/27 08:51:21;;;;;;;;;;;;;;;3.82;90.36;102691.59;5060093;28;20093;-58
2023/01/27 08:53:46;;;;;;;;;;;;;;;3.82;90.06;102694.22;5069426;28;20407;-59
2023/01/27 08:56:13;;;;;;;;;;;;;;;3.83;90.27;102695.94;5066631;28;19916;-57
2023/01/27 08:58:39;;;;;;;;;;;;;;;3.84;89.98;102702.88;5067645;28;19916;-57
2023/01/27 09:01:04;;;;;;;;;;;;;;;3.84;89.89;102708.13;5058814;28;20426;-57
2023/01/27 09:03:30;;;;;;;;;;;;;;;3.84;89.95;102700.25;5068442;28;19982;-57
2023/01/27 09:05:55;;;;;;;;;;;;;;;3.83;89.86;102703.81;5068176;28;19968;-58
2023/01/27 09:08:21;;;;;;;;;;;;;;;3.84;89.65;102718.66;5059933;28;19978;-58
2023/01/27 09:10:46;;;;;;;;;;;;;;;3.84;89.41;102712.53;5072683;28;20315;-59
2023/01/27 09:13:11;;;;;;;;;;;;;;;3.83;89.21;102711.69;5077020;28;20321;-58
2023/01/27 09:15:36;;;;;;;;;;;;;;;3.82;89.10;102710.00;5061136;28;19920;-59
2023/01/27 09:18:02;;;;;;;;;;;;;;;3.83;89.05;102718.72;5065880;28;20362;-58
2023/01/27 09:20:28;;;;;;;;;;;;;;;3.82;89.15;102714.41;5058277;28;20375;-58
2023/01/27 09:22:53;;;;;;;;;;;;;;;3.80;89.13;102716.25;5062572;28;19959;-58
2023/01/27 09:25:18;;;;;;;;;;;;;;;3.77;88.83;102735.66;5061403;28;19919;-59
2023/01/27 09:27:44;;;;;;;;;;;;;;;3.76;88.87;102731.34;5061042;28;19921;-58
2023/01/27 09:30:10;;;;;;;;;;;;;;;3.76;88.63;102733.09;5069844;28;19912;-58
2023/01/27 09:32:36;;;;;;;;;;;;;;;3.77;88.95;102734.81;5064125;28;19920;-59
2023/01/27 09:35:01;;;;;;;;;;;;;;;3.77;88.79;102740.94;5061272;28;19938;-58
2023/01/27 09:37:26;;;;;;;;;;;;;;;3.81;89.09;102746.88;5068925;28;19916;-59
2023/01/27 09:40:02;;;;;;;;;;;;;;;3.82;89.06;102740.69;5060925;28;19912;-59
2023/01/27 09:42:30;;;;;;;;;;;;;;;3.84;88.97;102738.81;5065139;28;20396;-58
2023/01/27 09:45:12;;;;;;;;;;;;;;;3.86;89.19;102740.44;5070717;28;19981;-59
2023/01/27 09:47:48;;;;;;;;;;;;;;;3.86;89.03;102739.59;5068344;28;19956;-59
2023/01/27 09:50:22;;;;;;;;;;;;;;;3.88;89.13;102743.84;5063889;28;19923;-58
2023/01/27 09:52:48;;;;;;;;;;;;;;;3.87;89.13;102744.75;5069092;28;19935;-58
2023/01/27 09:55:32;;;;;;;;;;;;;;;3.88;89.06;102750.88;5071864;28;19912;-59
2023/01/27 09:58:07;;;;;;;;;;;;;;;3.86;89.01;102758.84;5082009;28;19912;-58
2023/01/27 10:00:32;;;;;;;;;;;;;;;3.85;89.14;102761.53;5069032;28;20422;-59
2023/01/27 10:02:57;;;;;;;;;;;;;;;3.85;89.06;102759.75;5071442;28;19917;-59
2023/01/27 10:05:34;;;;;;;;;;;;;;;3.86;88.92;102758.84;5068537;28;19928;-59
2023/01/27 10:08:12;;;;;;;;;;;;;;;3.86;89.08;102757.97;5068466;28;19916;-59
2023/01/27 10:10:55;;;;;;;;;;;;;;;3.87;88.99;102759.69;5077763;28;19912;-58
2023/01/27 10:13:26;;;;;;;;;;;;;;;3.83;89.23;102758.16;5080995;28;19933;-59
2023/01/27 10:16:04;;;;;;;;;;;;;;;3.82;89.17;102753.81;5077382;28;19920;-59
2023/01/27 10:19:04;;;;;;;;;;;;;;;3.81;89.05;102757.38;5069458;28;20406;-60
2023/01/27 10:21:39;;;;;;;;;;;;;;;3.80;88.93;102753.91;5007450;28;20387;-58
2023/01/27 10:24:19;;;;;;;;;;;;;;;3.84;89.06;102749.34;5057738;28;20315;-59
2023/01/27 10:26:47;;;;;;;;;;;;;;;3.86;89.03;102745.69;5065657;28;19917;-58
2023/01/27 10:29:22;;;;;;;;;;;;;;;3.89;89.13;102753.41;5071732;28;20405;-58
2023/01/27 10:32:02;;;;;;;;;;;;;;;3.93;89.05;102741.81;5072605;28;19931;-58
2023/01/27 10:34:44;;;;;;;;;;;;;;;3.97;89.06;102740.72;5058919;28;19912;-58
2023/01/27 10:37:13;;;;;;;;;;;;;;;4.00;89.22;102745.81;5062528;28;19912;-58
2023/01/27 10:40:04;;;;;;;;;;;;;;;4.03;89.19;102742.16;5074976;28;19923;-57
2023/01/27 10:42:34;;;;;;;;;;;;;;;4.06;88.75;102741.19;5060666;28;19999;-57
2023/01/27 10:45:06;;;;;;;;;;;;;;;4.07;88.77;102734.97;5077280;28;19916;-58
2023/01/27 10:47:40;;;;;;;;;;;;;;;4.07;88.09;102738.47;5063907;28;20577;-58
2023/01/27 10:50:08;;;;;;;;;;;;;;;4.10;88.12;102737.44;5060333;28;19928;-57
2023/01/27 10:52:52;;;;;;;;;;;;;;;4.12;88.29;102739.06;5075018;28;19917;-58
2023/01/27 10:55:24;;;;;;;;;;;;;;;4.15;88.44;102738.88;5063894;28;19916;-58
2023/01/27 10:57:54;;;;;;;;;;;;;;;4.20;88.49;102738.63;5074639;28;19913;-59
2023/01/27 11:00:19;;;;;;;;;;;;;;;4.21;88.24;102737.72;5066411;28;19913;-58
2023/01/27 11:02:52;;;;;;;;;;;;;;;4.21;88.11;102735.94;5075575;28;19932;-59
2023/01/27 11:05:20;;;;;;;;;;;;;;;4.23;88.05;102741.09;5067383;28;19925;-58
2023/01/27 11:07:49;;;;;;;;;;;;;;;4.21;88.00;102748.22;5064763;28;19966;-58
2023/01/27 11:10:16;;;;;;;;;;;;;;;4.20;88.14;102744.75;5072272;28;19999;-58
2023/01/27 11:12:46;;;;;;;;;;;;;;;4.18;87.72;102737.88;5070190;28;20062;-57
2023/01/27 11:15:25;;;;;;;;;;;;;;;4.16;87.98;102734.47;5063155;28;19924;-58
2023/01/27 11:17:52;;;;;;;;;;;;;;;4.13;87.74;102732.88;5065708;28;19974;-57
2023/01/27 11:20:29;;;;;;;;;;;;;;;4.11;88.13;102731.25;5063518;28;19923;-59
2023/01/27 11:23:04;;;;;;;;;;;;;;;4.10;87.99;102729.56;5057020;28;19924;-58
2023/01/27 11:25:51;;;;;;;;;;;;;;;4.09;88.36;102730.50;5060821;28;19936;-58
2023/01/27 11:28:19;;;;;;;;;;;;;;;4.08;88.51;102729.63;5061975;28;20025;-59
2023/01/27 11:30:53;;;;;;;;;;;;;;;4.09;88.35;102723.44;5060730;28;20035;-59
2023/01/27 11:33:24;;;;;;;;;;;;;;;4.09;88.43;102730.50;5069359;28;19962;-57
2023/01/27 11:35:52;;;;;;;;;;;;;;;4.11;88.39;102723.38;5067551;28;20347;-58
2023/01/27 11:38:18;;;;;;;;;;;;;;;4.11;88.41;102729.47;5065825;28;19956;-58
2023/01/27 11:40:44;;;;;;;;;;;;;;;4.13;88.61;102730.25;5064372;28;21722;-59
2023/01/27 11:43:14;;;;;;;;;;;;;;;4.16;88.64;102729.22;5060721;28;19916;-58
2023/01/27 11:45:39;;;;;;;;;;;;;;;4.18;88.73;102722.09;5076821;28;19957;-59
2023/01/27 11:48:06;;;;;;;;;;;;;;;4.20;88.83;102717.59;5071886;28;19917;-59
2023/01/27 11:50:33;;;;;;;;;;;;;;;4.20;88.63;102721.09;5065641;28;20392;-58
2023/01/27 11:53:19;;;;;;;;;;;;;;;4.22;88.70;102715.75;5058306;28;19951;-58
2023/01/27 11:55:54;;;;;;;;;;;;;;;4.21;88.39;102707.00;5063091;28;19920;-59
2023/01/27 11:58:22;;;;;;;;;;;;;;;4.23;88.67;102720.06;5068243;28;20007;-58
2023/01/27 12:00:57;;;;;;;;;;;;;;;4.26;88.76;102717.25;5064335;28;19917;-58
2023/01/27 12:03:34;;;;;;;;;;;;;;;4.24;88.45;102713.88;5080667;28;19916;-58
2023/01/27 12:06:04;;;;;;;;;;;;;;;4.26;88.42;102714.63;5063959;28;19919;-59
2023/01/27 12:08:36;;;;;;;;;;;;;;;4.24;88.21;102717.34;5066847;28;20509;-58
2023/01/27 12:11:16;;;;;;;;;;;;;;;4.23;87.99;102709.53;5065826;28;19923;-58
2023/01/27 12:13:47;;;;;;;;;;;;;;;4.23;87.98;102714.81;5074057;28;19939;-58
2023/01/27 12:16:12;;;;;;;;;;;;;;;4.24;88.13;102713.88;5065911;28;19970;-58
2023/01/27 12:18:46;;;;;;;;;;;;;;;4.26;88.40;102709.38;5074421;28;19948;-58
2023/01/27 12:21:12;;;;;;;;;;;;;;;4.27;88.29;102716.31;5068263;28;19923;-58
2023/01/27 12:23:46;;;;;;;;;;;;;;;4.26;88.04;102710.22;5054298;28;19917;-57
2023/01/27 12:26:11;;;;;;;;;;;;;;;4.25;88.24;102710.31;5067507;28;19924;-58
2023/01/27 12:28:58;;;;;;;;;;;;;;;4.25;88.09;102702.41;5068266;28;20010;-58
2023/01/27 12:31:23;;;;;;;;;;;;;;;4.23;87.90;102701.66;5078808;28;19915;-59
2023/01/27 12:33:57;;;;;;;;;;;;;;;4.21;88.09;102699.13;5062900;28;19921;-58
2023/01/27 12:36:23;;;;;;;;;;;;;;;4.21;87.93;102695.63;5075681;28;20007;-59
2023/01/27 12:38:50;;;;;;;;;;;;;;;4.20;87.64;102696.56;5060417;28;19919;-58
2023/01/27 12:41:21;;;;;;;;;;;;;;;4.19;87.88;102693.09;5067331;28;20002;-59
2023/01/27 12:43:50;;;;;;;;;;;;;;;4.20;87.59;102702.69;5067475;28;19946;-58
2023/01/27 12:46:20;;;;;;;;;;;;;;;4.21;87.76;102698.25;5059177;28;19927;-58
2023/01/27 12:48:48;;;;;;;;;;;;;;;4.21;87.77;102696.47;5064852;28;19968;-59
2023/01/27 12:51:15;;;;;;;;;;;;;;;4.21;87.62;102685.13;5074874;28;19928;-58
2023/01/27 12:53:42;;;;;;;;;;;;;;;4.22;87.73;102681.56;5076816;28;20303;-58
2023/01/27 12:56:11;;;;;;;;;;;;;;;4.23;87.80;102678.84;5059267;28;19913;-58
2023/01/27 12:58:46;;;;;;;;;;;;;;;4.27;87.62;102679.50;5061352;28;19920;-58
2023/01/27 13:01:20;;;;;;;;;;;;;;;4.30;87.90;102677.56;5075704;28;19920;-58
2023/01/27 13:03:50;;;;;;;;;;;;;;;4.35;87.90;102679.97;5065586;28;19956;-58
2023/01/27 13:06:17;;;;;;;;;;;;;;;4.37;87.61;102685.97;5064164;28;19928;-59
2023/01/27 13:08:42;;;;;;;;;;;;;;;4.39;87.64;102678.00;5062763;28;20288;-58
2023/01/27 13:11:08;;;;;;;;;;;;;;;4.30;87.33;102660.94;5074684;28;20379;-57
2023/01/27 13:13:34;;;;;;;;;;;;;;;4.38;87.08;102678.94;5073146;28;19912;-58
2023/01/27 13:16:13;;;;;;;;;;;;;;;4.39;87.08;102673.59;5073690;28;20023;-59
2023/01/27 13:18:41;;;;;;;;;;;;;;;4.40;86.89;102675.28;5067652;28;20364;-59
2023/01/27 13:21:10;;;;;;;;;;;;;;;4.41;86.92;102673.50;5076516;28;20376;-58